Time;durP1;ratioP1;P1;durP2;ratioP2;P2;SDS_P1;SDS_P2;PMS_P1;PMS_P2;Temp;Humidity;BMP_temperature;BMP_pressure;BME280_temperature;BME280_humidity;BME280_pressure;Samples;Min_cycle;Max_cycle;Signal;HPM_P1;HPM_P2
2022/01/23 00:00:37;;;;;;;18.53;9.03;;;-2.60;99.90;;;;;;5036542;28;20532;-67
2022/01/23 00:03:09;;;;;;;19.60;9.73;;;-2.60;99.90;;;;;;5035441;28;20202;-67
2022/01/23 00:05:40;;;;;;;19.00;9.73;;;-2.60;99.90;;;;;;5036036;28;20236;-66
2022/01/23 00:08:09;;;;;;;17.93;9.13;;;-2.50;99.90;;;;;;5036283;28;20281;-67
2022/01/23 00:10:36;;;;;;;15.20;8.50;;;-2.50;99.90;;;;;;5035132;28;20668;-66
2022/01/23 00:13:10;;;;;;;17.60;8.67;;;-2.50;99.90;;;;;;5036084;28;20206;-67
2022/01/23 00:18:22;;;;;;;15.57;8.00;;;-2.40;99.90;;;;;;5035319;28;20196;-67
2022/01/23 00:20:50;;;;;;;14.97;9.13;;;-2.50;99.90;;;;;;5035315;28;20193;-67
2022/01/23 00:23:30;;;;;;;15.57;8.77;;;-2.40;99.90;;;;;;5035108;28;20210;-66
2022/01/23 00:31:27;;;;;;;17.47;9.00;;;-2.40;99.90;;;;;;5035537;28;20328;-66
2022/01/23 00:33:54;;;;;;;17.43;9.63;;;-2.40;99.90;;;;;;5035646;28;20216;-67
2022/01/23 00:36:22;;;;;;;18.00;9.23;;;-2.40;99.90;;;;;;5035348;28;20237;-66
2022/01/23 00:38:50;;;;;;;15.17;9.13;;;-2.40;99.90;;;;;;5035572;28;20483;-66
2022/01/23 00:41:18;;;;;;;14.87;8.70;;;-2.40;99.90;;;;;;5034084;28;20206;-66
2022/01/23 00:43:45;;;;;;;15.00;8.60;;;-2.30;99.90;;;;;;5035189;28;20232;-68
2022/01/23 00:46:23;;;;;;;16.40;9.00;;;-2.30;99.90;;;;;;5034978;28;20214;-67
2022/01/23 00:49:14;;;;;;;17.67;9.73;;;-2.30;99.90;;;;;;5035261;28;20186;-66
2022/01/23 00:51:40;;;;;;;19.50;9.70;;;-2.30;99.90;;;;;;5034495;28;20650;-65
2022/01/23 00:54:10;;;;;;;17.80;9.40;;;-2.30;99.90;;;;;;5034515;28;20654;-67
2022/01/23 00:56:38;;;;;;;17.20;9.43;;;-2.30;99.90;;;;;;5035374;28;20634;-68
2022/01/23 00:59:05;;;;;;;18.00;10.23;;;-2.30;99.90;;;;;;5035107;28;20212;-66
2022/01/23 01:01:33;;;;;;;18.40;9.97;;;-2.30;99.90;;;;;;5034890;28;20206;-67
2022/01/23 01:04:00;;;;;;;21.20;9.90;;;-2.20;99.90;;;;;;5034028;28;20209;-66
2022/01/23 01:06:27;;;;;;;17.47;9.70;;;-2.20;99.90;;;;;;5034979;28;20230;-67
2022/01/23 01:08:55;;;;;;;17.47;9.77;;;-2.20;99.90;;;;;;5035282;28;20206;-67
2022/01/23 01:11:53;;;;;;;17.90;9.23;;;-2.20;99.90;;;;;;5034279;28;20249;-66
2022/01/23 01:14:54;;;;;;;16.50;8.97;;;-2.20;99.90;;;;;;5034042;28;20206;-68
2022/01/23 01:17:28;;;;;;;18.17;8.80;;;-2.10;99.90;;;;;;5033053;28;20190;-66
2022/01/23 01:31:04;;;;;;;15.03;7.97;;;-2.20;99.90;;;;;;5034014;28;20193;-66
2022/01/23 01:33:43;;;;;;;14.53;8.40;;;-2.20;99.90;;;;;;5031533;28;20646;-66
2022/01/23 01:36:27;;;;;;;16.47;8.50;;;-2.20;99.90;;;;;;5032897;28;20183;-67
2022/01/23 01:38:55;;;;;;;13.87;8.27;;;-2.30;99.90;;;;;;5034405;28;20201;-67
2022/01/23 01:41:22;;;;;;;14.60;8.07;;;-2.30;99.90;;;;;;5033859;28;20209;-67
2022/01/23 01:43:52;;;;;;;15.57;8.57;;;-2.30;99.90;;;;;;5033599;28;20264;-65
2022/01/23 01:46:20;;;;;;;16.90;8.67;;;-2.20;99.90;;;;;;5033816;28;20206;-66
2022/01/23 01:48:47;;;;;;;13.77;7.87;;;-2.20;99.90;;;;;;5034239;28;20214;-66
2022/01/23 01:51:16;;;;;;;14.73;8.27;;;-2.20;99.90;;;;;;5033843;28;20309;-66
2022/01/23 01:53:49;;;;;;;16.97;8.77;;;-2.20;99.90;;;;;;5033995;28;20206;-67
2022/01/23 01:56:16;;;;;;;13.10;8.03;;;-2.20;99.90;;;;;;5033603;28;20190;-66
2022/01/23 01:59:11;;;;;;;15.80;9.33;;;-2.20;99.90;;;;;;5033750;28;20217;-66
2022/01/23 02:10:06;;;;;;;14.67;8.33;;;-2.20;99.90;;;;;;5033448;28;20280;-68
2022/01/23 02:13:04;;;;;;;17.20;8.73;;;-2.30;99.90;;;;;;5033693;28;20294;-67
2022/01/23 02:16:16;;;;;;;16.97;8.90;;;-2.30;99.90;;;;;;5032726;28;20616;-66
2022/01/23 02:51:59;;;;;;;22.10;11.00;;;-2.10;99.90;;;;;;5032569;28;20207;-68
2022/01/23 02:54:43;;;;;;;19.43;10.37;;;-2.10;99.90;;;;;;5032709;28;20199;-66
2022/01/23 02:57:11;;;;;;;16.87;9.77;;;-2.10;99.90;;;;;;5032276;28;20186;-66
2022/01/23 02:59:40;;;;;;;17.63;9.27;;;-2.20;99.90;;;;;;5032410;28;20202;-66
2022/01/23 03:02:21;;;;;;;13.97;8.57;;;-2.20;99.90;;;;;;5032509;28;20571;-66
2022/01/23 03:04:51;;;;;;;15.70;8.77;;;-2.20;99.90;;;;;;5032628;28;20194;-66
2022/01/23 03:07:36;;;;;;;17.17;9.47;;;-2.20;99.90;;;;;;5031616;28;20221;-66
2022/01/23 03:10:08;;;;;;;14.60;8.47;;;-2.20;99.90;;;;;;5031709;28;20302;-68
2022/01/23 03:15:42;;;;;;;17.40;9.90;;;-2.30;99.90;;;;;;5032259;28;20179;-66
2022/01/23 03:26:29;;;;;;;20.77;10.10;;;-2.50;99.90;;;;;;5024474;28;20300;-66
2022/01/23 03:31:56;;;;;;;17.27;10.07;;;-2.70;99.90;;;;;;5011613;28;20207;-66
2022/01/23 03:34:26;;;;;;;19.60;10.10;;;-2.80;99.90;;;;;;5012584;28;20586;-67
2022/01/23 03:36:55;;;;;;;17.77;10.20;;;-2.70;99.90;;;;;;5012736;28;20207;-65
2022/01/23 03:39:22;;;;;;;18.60;10.43;;;-2.80;99.90;;;;;;5012428;28;20231;-66
2022/01/23 03:41:50;;;;;;;18.17;11.07;;;-2.90;99.90;;;;;;5030036;28;20202;-66
2022/01/23 03:44:17;;;;;;;21.63;11.20;;;-2.90;99.90;;;;;;5032023;28;20202;-66
2022/01/23 03:47:00;;;;;;;22.47;11.43;;;-2.90;99.90;;;;;;5031563;28;20228;-66
2022/01/23 03:49:33;;;;;;;20.67;11.00;;;-2.90;99.90;;;;;;5031414;28;20197;-65
2022/01/23 03:52:01;;;;;;;18.50;11.27;;;-2.90;99.90;;;;;;5031628;28;20194;-66
2022/01/23 03:54:28;;;;;;;19.80;11.33;;;-2.90;99.90;;;;;;5032260;28;20300;-65
2022/01/23 03:56:58;;;;;;;18.70;11.47;;;-3.00;99.90;;;;;;5031878;28;20566;-66
2022/01/23 03:59:25;;;;;;;20.53;11.47;;;-3.00;99.90;;;;;;5031331;28;20205;-67
2022/01/23 04:01:52;;;;;;;21.70;11.73;;;-3.00;99.90;;;;;;5031173;28;20198;-64
2022/01/23 04:04:38;;;;;;;21.40;11.50;;;-3.10;99.90;;;;;;5031872;28;20202;-66
2022/01/23 04:07:07;;;;;;;25.47;12.27;;;-3.10;99.90;;;;;;5031824;28;20210;-66
2022/01/23 04:09:34;;;;;;;17.43;11.00;;;-3.00;99.90;;;;;;5030542;28;20210;-66
2022/01/23 04:12:04;;;;;;;18.53;10.90;;;-3.10;99.90;;;;;;5031419;28;20226;-67
2022/01/23 04:14:33;;;;;;;17.60;10.20;;;-3.10;99.90;;;;;;5031811;28;20206;-66
2022/01/23 04:19:58;;;;;;;18.43;10.37;;;-3.00;99.90;;;;;;5030573;28;20224;-65
2022/01/23 04:33:43;;;;;;;22.00;12.20;;;-3.00;99.90;;;;;;5031524;28;20217;-65
2022/01/23 05:01:01;;;;;;;20.17;11.50;;;-3.00;99.90;;;;;;5034183;28;20547;-65
2022/01/23 05:04:06;;;;;;;18.50;10.77;;;-3.10;99.90;;;;;;5034663;28;20208;-66
2022/01/23 05:06:41;;;;;;;21.13;11.20;;;-3.20;99.90;;;;;;5034393;28;20252;-67
2022/01/23 05:09:08;;;;;;;23.50;11.73;;;-3.30;99.90;;;;;;5034313;28;20205;-67
2022/01/23 05:11:35;;;;;;;23.10;12.30;;;-3.20;99.90;;;;;;5033813;28;20307;-67
2022/01/23 05:14:04;;;;;;;21.00;11.73;;;-3.30;99.90;;;;;;5034016;28;20202;-66
2022/01/23 05:16:32;;;;;;;22.27;12.30;;;-3.40;99.90;;;;;;5034757;28;20202;-68
2022/01/23 05:18:59;;;;;;;23.83;12.70;;;-3.60;99.90;;;;;;5034750;28;20206;-67
2022/01/23 05:21:51;;;;;;;23.27;12.90;;;-3.70;99.90;;;;;;5033993;28;20747;-68
2022/01/23 05:24:22;;;;;;;23.77;12.70;;;-3.80;99.90;;;;;;5034471;28;20248;-67
2022/01/23 05:26:49;;;;;;;22.23;12.43;;;-3.90;99.90;;;;;;5034338;28;20213;-66
2022/01/23 05:29:16;;;;;;;24.40;12.43;;;-3.90;99.90;;;;;;5034122;28;20225;-66
2022/01/23 05:31:45;;;;;;;24.37;12.63;;;-3.90;99.90;;;;;;5033632;28;20205;-65
2022/01/23 05:34:12;;;;;;;23.93;13.10;;;-4.00;99.90;;;;;;5033504;28;20210;-66
2022/01/23 05:36:39;;;;;;;23.90;12.97;;;-4.10;99.90;;;;;;5033937;28;20206;-66
2022/01/23 05:39:06;;;;;;;25.17;13.03;;;-4.10;99.90;;;;;;5034189;28;20229;-66
2022/01/23 05:41:33;;;;;;;26.43;13.90;;;-4.20;99.90;;;;;;5034109;28;20725;-65
2022/01/23 05:44:00;;;;;;;28.37;14.03;;;-4.20;99.90;;;;;;5034129;28;20202;-67
2022/01/23 05:46:27;;;;;;;25.90;13.80;;;-4.30;99.90;;;;;;5033726;28;20321;-66
2022/01/23 05:48:55;;;;;;;27.77;14.33;;;-4.40;99.90;;;;;;5034258;28;20206;-65
2022/01/23 05:51:22;;;;;;;31.27;16.03;;;-4.40;99.90;;;;;;5032841;28;20205;-66
2022/01/23 05:53:50;;;;;;;30.93;14.73;;;-4.50;99.90;;;;;;5033224;28;20202;-66
2022/01/23 05:56:17;;;;;;;31.97;16.37;;;-4.60;99.90;;;;;;5032637;28;20194;-66
2022/01/23 05:58:44;;;;;;;30.47;15.93;;;-4.60;99.90;;;;;;5033515;28;20206;-66
2022/01/23 06:01:11;;;;;;;29.67;16.00;;;-4.70;99.90;;;;;;5033781;28;20235;-68
2022/01/23 06:03:38;;;;;;;32.50;16.47;;;-4.80;99.90;;;;;;5032992;28;20206;-66
2022/01/23 06:06:06;;;;;;;29.57;16.40;;;-4.90;99.90;;;;;;5033499;28;20612;-68
2022/01/23 06:08:33;;;;;;;34.10;16.87;;;-4.90;99.90;;;;;;5033222;28;20228;-66
2022/01/23 06:10:59;;;;;;;30.00;17.27;;;-4.90;99.90;;;;;;5033409;28;20248;-68
2022/01/23 06:13:28;;;;;;;29.60;15.87;;;-5.00;99.90;;;;;;5033045;28;20571;-66
2022/01/23 06:15:55;;;;;;;31.00;17.00;;;-5.00;99.90;;;;;;5033146;28;20697;-66
2022/01/23 06:18:23;;;;;;;32.20;16.90;;;-5.10;99.90;;;;;;5033503;28;20532;-67
2022/01/23 06:20:49;;;;;;;33.83;17.37;;;-5.10;99.90;;;;;;5033467;28;20567;-66
2022/01/23 06:23:18;;;;;;;32.17;17.00;;;-5.10;99.90;;;;;;5033008;28;20245;-66
2022/01/23 06:25:47;;;;;;;32.70;17.13;;;-5.10;99.90;;;;;;5032936;28;20297;-66
2022/01/23 06:28:23;;;;;;;33.07;16.77;;;-5.10;99.90;;;;;;5033266;28;20232;-66
2022/01/23 06:30:50;;;;;;;32.53;16.70;;;-5.20;99.90;;;;;;5032299;28;20190;-67
2022/01/23 06:33:17;;;;;;;33.80;16.70;;;-5.20;99.90;;;;;;5033277;28;20395;-66
2022/01/23 06:35:43;;;;;;;33.93;18.03;;;-5.10;99.90;;;;;;5032956;28;20539;-66
2022/01/23 06:38:10;;;;;;;29.87;16.27;;;-5.10;99.90;;;;;;5033343;28;20646;-66
2022/01/23 06:40:38;;;;;;;29.63;16.50;;;-5.10;99.90;;;;;;5032551;28;20725;-65
2022/01/23 06:43:05;;;;;;;32.17;16.27;;;-5.10;99.90;;;;;;5032939;28;20221;-67
2022/01/23 06:45:32;;;;;;;33.70;16.97;;;-5.10;99.90;;;;;;5032813;28;20202;-66
2022/01/23 06:47:59;;;;;;;30.67;16.73;;;-5.10;99.90;;;;;;5032972;28;20230;-66
2022/01/23 06:50:25;;;;;;;36.63;17.03;;;-5.00;99.90;;;;;;5032956;28;20216;-65
2022/01/23 06:52:52;;;;;;;34.87;17.47;;;-5.00;99.90;;;;;;5032735;28;20573;-66
2022/01/23 06:55:19;;;;;;;35.20;17.73;;;-5.00;99.90;;;;;;5032985;28;20206;-67
2022/01/23 06:57:47;;;;;;;34.07;17.63;;;-5.00;99.90;;;;;;5032913;28;20640;-66
2022/01/23 07:00:15;;;;;;;33.93;17.33;;;-5.10;99.90;;;;;;5032419;28;20202;-66
2022/01/23 07:02:42;;;;;;;34.73;17.80;;;-5.10;99.90;;;;;;5031929;28;20218;-66
2022/01/23 07:05:09;;;;;;;33.97;16.47;;;-5.10;99.90;;;;;;5033017;28;20220;-66
2022/01/23 07:07:36;;;;;;;36.87;17.90;;;-5.10;99.90;;;;;;5032445;28;20226;-67
2022/01/23 07:10:03;;;;;;;33.17;18.27;;;-5.10;99.90;;;;;;5031939;28;20240;-66
2022/01/23 07:12:30;;;;;;;29.30;16.17;;;-5.00;99.90;;;;;;5031947;28;20622;-68
2022/01/23 07:14:59;;;;;;;35.40;16.60;;;-5.00;99.90;;;;;;5032395;28;20206;-65
2022/01/23 07:17:26;;;;;;;33.40;16.80;;;-5.00;99.90;;;;;;5031647;28;20194;-67
2022/01/23 07:19:52;;;;;;;32.17;16.83;;;-4.90;99.90;;;;;;5032003;28;20214;-67
2022/01/23 07:22:19;;;;;;;31.33;16.33;;;-4.80;99.90;;;;;;5031136;28;20198;-66
2022/01/23 07:24:46;;;;;;;32.23;16.33;;;-4.80;99.90;;;;;;5031300;28;20293;-66
2022/01/23 07:27:17;;;;;;;29.50;16.40;;;-4.70;99.90;;;;;;5027819;28;20241;-65
2022/01/23 07:29:46;;;;;;;34.17;15.93;;;-4.70;99.90;;;;;;5030746;28;20198;-66
2022/01/23 07:32:14;;;;;;;35.43;17.07;;;-4.70;99.90;;;;;;5027283;28;20201;-65
2022/01/23 07:34:41;;;;;;;33.50;17.90;;;-4.60;99.90;;;;;;5030627;28;20206;-67
2022/01/23 07:37:10;;;;;;;33.10;17.77;;;-4.60;99.90;;;;;;5031035;28;20565;-65
2022/01/23 07:39:36;;;;;;;36.10;18.67;;;-4.60;99.90;;;;;;5030638;28;20336;-66
2022/01/23 07:42:04;;;;;;;34.03;18.13;;;-4.60;99.90;;;;;;5030929;28;20206;-67
2022/01/23 07:44:30;;;;;;;38.27;18.97;;;-4.60;99.90;;;;;;5029468;28;20293;-66
2022/01/23 07:46:57;;;;;;;36.97;18.53;;;-4.50;99.90;;;;;;5030901;28;20198;-68
2022/01/23 07:49:25;;;;;;;31.47;16.60;;;-4.50;99.90;;;;;;5030467;28;20202;-67
2022/01/23 07:51:52;;;;;;;34.90;17.60;;;-4.40;99.90;;;;;;5028382;28;20194;-68
2022/01/23 07:54:20;;;;;;;34.27;17.93;;;-4.30;99.90;;;;;;5029693;28;20202;-68
2022/01/23 07:56:47;;;;;;;31.67;16.90;;;-4.30;99.90;;;;;;5030081;28;20206;-65
2022/01/23 07:59:14;;;;;;;37.60;19.00;;;-4.20;99.90;;;;;;5030771;28;20194;-67
2022/01/23 08:01:41;;;;;;;36.87;18.53;;;-4.20;99.90;;;;;;5030979;28;20202;-67
2022/01/23 08:04:08;;;;;;;35.70;16.90;;;-4.10;99.90;;;;;;5030134;28;20210;-68
2022/01/23 08:06:41;;;;;;;37.33;19.60;;;-4.10;99.90;;;;;;5030215;28;20202;-68
2022/01/23 08:09:08;;;;;;;34.63;17.00;;;-4.00;99.90;;;;;;5029717;28;20214;-68
2022/01/23 08:11:35;;;;;;;33.83;17.60;;;-4.00;99.90;;;;;;5030101;28;20264;-67
2022/01/23 08:14:01;;;;;;;37.10;18.40;;;-4.00;99.90;;;;;;5031853;28;20658;-67
2022/01/23 08:16:29;;;;;;;34.90;17.60;;;-3.90;99.90;;;;;;5033891;28;20657;-67
2022/01/23 08:18:56;;;;;;;34.60;17.07;;;-3.90;99.90;;;;;;5034188;28;20285;-66
2022/01/23 08:21:22;;;;;;;37.00;17.83;;;-3.80;99.90;;;;;;5035511;28;20212;-67
2022/01/23 08:23:54;;;;;;;36.17;17.60;;;-3.80;99.90;;;;;;5035382;28;20232;-66
2022/01/23 08:26:22;;;;;;;35.07;18.13;;;-3.70;99.90;;;;;;5035146;28;20720;-66
2022/01/23 08:28:49;;;;;;;37.00;18.17;;;-3.70;99.90;;;;;;5034328;28;20248;-68
2022/01/23 08:31:16;;;;;;;38.83;18.73;;;-3.70;99.90;;;;;;5033561;28;20198;-67
2022/01/23 08:33:42;;;;;;;34.33;17.50;;;-3.60;99.90;;;;;;5035556;28;20226;-67
2022/01/23 08:36:09;;;;;;;33.10;16.73;;;-3.50;99.90;;;;;;5034735;28;20216;-69
2022/01/23 08:38:36;;;;;;;38.70;18.93;;;-3.50;99.90;;;;;;5035180;28;20193;-67
2022/01/23 08:43:49;;;;;;;35.50;17.90;;;-3.40;99.90;;;;;;5035694;28;20189;-67
2022/01/23 08:46:16;;;;;;;38.73;18.73;;;-3.30;99.90;;;;;;5034000;28;20205;-67
2022/01/23 08:48:43;;;;;;;34.37;19.00;;;-3.20;99.90;;;;;;5034679;28;20222;-66
2022/01/23 08:51:10;;;;;;;37.87;18.70;;;-3.10;99.90;;;;;;5034957;28;20213;-67
2022/01/23 08:53:38;;;;;;;37.43;17.77;;;-3.00;99.90;;;;;;5035143;28;20205;-66
2022/01/23 08:56:06;;;;;;;34.87;17.03;;;-3.00;99.90;;;;;;5033544;28;20208;-65
2022/01/23 08:58:33;;;;;;;34.57;17.47;;;-2.90;99.90;;;;;;5034672;28;20285;-66
2022/01/23 09:01:00;;;;;;;35.27;17.23;;;-2.90;99.90;;;;;;5035080;28;20205;-67
2022/01/23 09:03:27;;;;;;;35.27;18.00;;;-2.80;99.90;;;;;;5034515;28;20194;-68
2022/01/23 09:05:54;;;;;;;37.03;18.03;;;-2.70;99.90;;;;;;5034393;28;20562;-68
2022/01/23 09:08:21;;;;;;;37.30;18.37;;;-2.70;99.90;;;;;;5034339;28;20553;-66
2022/01/23 09:10:58;;;;;;;35.87;17.53;;;-2.60;99.90;;;;;;5034467;28;20236;-67
2022/01/23 09:13:52;;;;;;;40.03;18.37;;;-2.60;99.90;;;;;;5034656;28;20194;-67
2022/01/23 09:16:19;;;;;;;35.37;18.43;;;-2.60;99.90;;;;;;5034173;28;20218;-68
2022/01/23 09:18:46;;;;;;;36.57;18.10;;;-2.50;99.90;;;;;;5034381;28;20209;-67
2022/01/23 09:21:13;;;;;;;33.67;17.17;;;-2.50;99.90;;;;;;5034502;28;20209;-68
2022/01/23 09:23:41;;;;;;;31.27;17.13;;;-2.50;99.90;;;;;;5034418;28;20551;-67
2022/01/23 09:26:10;;;;;;;30.73;16.20;;;-2.40;99.90;;;;;;5032253;28;20210;-66
2022/01/23 09:28:40;;;;;;;28.57;15.40;;;-2.30;99.90;;;;;;5033692;28;20229;-68
2022/01/23 09:31:07;;;;;;;28.97;15.53;;;-2.20;99.90;;;;;;5033852;28;20216;-67
2022/01/23 09:33:34;;;;;;;25.60;13.03;;;-2.10;99.90;;;;;;5034174;28;20481;-67
2022/01/23 09:36:01;;;;;;;28.33;13.93;;;-2.00;99.90;;;;;;5033906;28;20210;-68
2022/01/23 09:38:28;;;;;;;22.53;11.73;;;-2.10;99.90;;;;;;5033706;28;20205;-68
2022/01/23 09:40:59;;;;;;;16.80;9.97;;;-2.10;99.90;;;;;;5033567;28;20296;-67
2022/01/23 09:43:28;;;;;;;21.57;11.83;;;-2.10;99.90;;;;;;5034445;28;20195;-68
2022/01/23 09:45:56;;;;;;;24.60;11.10;;;-2.00;99.90;;;;;;5033936;28;20565;-68
2022/01/23 09:48:24;;;;;;;27.47;13.50;;;-2.00;99.90;;;;;;5033971;28;20237;-69
2022/01/23 09:50:53;;;;;;;21.50;11.63;;;-2.00;99.90;;;;;;5032540;28;20202;-69
2022/01/23 09:53:23;;;;;;;21.87;11.60;;;-1.90;99.90;;;;;;5034148;28;20558;-67
2022/01/23 09:55:54;;;;;;;17.97;10.70;;;-1.80;99.90;;;;;;5033469;28;20610;-68
2022/01/23 09:58:21;;;;;;;16.10;9.50;;;-1.70;99.90;;;;;;5033523;28;20199;-67
2022/01/23 10:00:48;;;;;;;19.03;10.77;;;-1.60;99.90;;;;;;5033514;28;20566;-69
2022/01/23 10:03:19;;;;;;;18.07;11.23;;;-1.50;99.90;;;;;;5033963;28;20544;-68
2022/01/23 10:05:49;;;;;;;22.90;12.57;;;-1.40;99.90;;;;;;5034020;28;20241;-67
2022/01/23 10:08:17;;;;;;;23.37;13.43;;;-1.40;99.90;;;;;;5033418;28;20917;-69
2022/01/23 10:10:50;;;;;;;21.37;12.70;;;-1.30;99.90;;;;;;5032866;28;20238;-65
2022/01/23 10:13:18;;;;;;;22.37;12.57;;;-1.30;99.90;;;;;;5033625;28;20190;-66
2022/01/23 10:15:44;;;;;;;25.30;13.83;;;-1.30;99.90;;;;;;5033265;28;20210;-69
2022/01/23 10:18:11;;;;;;;25.80;13.27;;;-1.30;99.90;;;;;;5033177;28;20229;-68
2022/01/23 10:20:39;;;;;;;22.73;12.37;;;-1.40;99.90;;;;;;5032216;28;20198;-67
2022/01/23 10:23:06;;;;;;;23.50;11.87;;;-1.30;99.90;;;;;;5033623;28;20680;-66
2022/01/23 10:25:35;;;;;;;23.27;12.40;;;-1.40;99.90;;;;;;5033065;28;20293;-66
2022/01/23 10:28:06;;;;;;;25.90;13.10;;;-1.30;99.90;;;;;;5032770;28;20656;-67
2022/01/23 10:30:35;;;;;;;21.10;11.60;;;-1.30;99.90;;;;;;5033137;28;20325;-67
2022/01/23 10:33:10;;;;;;;18.63;10.30;;;-1.30;99.90;;;;;;5032066;28;20680;-66
2022/01/23 10:35:57;;;;;;;22.63;10.50;;;-1.30;99.90;;;;;;5017320;28;20194;-69
2022/01/23 10:38:25;;;;;;;19.60;11.30;;;-1.30;99.90;;;;;;5033041;28;20191;-68
2022/01/23 10:41:05;;;;;;;16.53;9.70;;;-1.30;99.90;;;;;;5032646;28;20236;-68
2022/01/23 10:49:01;;;;;;;14.80;8.43;;;-1.30;99.90;;;;;;5035296;28;20267;-67
2022/01/23 10:51:30;;;;;;;14.93;9.03;;;-1.40;99.90;;;;;;5033966;28;20686;-67
2022/01/23 10:54:09;;;;;;;13.77;8.53;;;-1.50;99.90;;;;;;5032116;28;20467;-69
2022/01/23 10:56:40;;;;;;;16.53;9.33;;;-1.40;99.90;;;;;;5032762;28;20225;-68
2022/01/23 10:59:10;;;;;;;15.23;8.53;;;-1.40;99.90;;;;;;5032622;28;20233;-66
2022/01/23 11:01:38;;;;;;;17.33;8.70;;;-1.40;99.90;;;;;;5032497;28;20190;-66
2022/01/23 11:04:07;;;;;;;16.10;9.10;;;-1.40;99.90;;;;;;5031189;28;20201;-68
2022/01/23 11:06:52;;;;;;;16.47;9.27;;;-1.40;99.90;;;;;;5032701;28;20291;-67
2022/01/23 11:09:19;;;;;;;15.13;9.40;;;-1.40;99.90;;;;;;5021403;28;20225;-67
2022/01/23 11:11:48;;;;;;;14.70;9.40;;;-1.40;99.90;;;;;;5031563;28;20316;-66
2022/01/23 11:17:23;;;;;;;16.53;10.23;;;-1.40;99.90;;;;;;5010938;28;20202;-66
2022/01/23 11:19:52;;;;;;;34.07;16.97;;;-1.40;99.90;;;;;;5023201;28;20267;-69
2022/01/23 11:22:23;;;;;;;15.27;10.17;;;-1.40;99.90;;;;;;5032068;28;20206;-68
2022/01/23 11:24:52;;;;;;;17.63;9.80;;;-1.40;99.90;;;;;;5031424;28;20209;-67
2022/01/23 11:27:21;;;;;;;15.23;8.93;;;-1.40;99.90;;;;;;5032028;28;20631;-68
2022/01/23 11:29:55;;;;;;;16.77;9.83;;;-1.40;99.90;;;;;;5031782;28;20226;-68
2022/01/23 11:32:25;;;;;;;14.07;7.97;;;-1.50;99.90;;;;;;5031671;28;20215;-68
2022/01/23 11:34:57;;;;;;;14.30;8.60;;;-1.50;99.90;;;;;;5038093;28;20203;-69
2022/01/23 11:37:26;;;;;;;15.43;8.57;;;-1.60;99.90;;;;;;5040765;28;20244;-67
2022/01/23 11:39:59;;;;;;;12.23;7.70;;;-1.50;99.90;;;;;;5032155;28;20205;-66
2022/01/23 11:50:50;;;;;;;21.47;10.37;;;-1.50;99.90;;;;;;5037975;28;20229;-67
2022/01/23 11:53:47;;;;;;;18.13;10.63;;;-1.50;99.90;;;;;;5036873;28;20621;-67
2022/01/23 11:56:42;;;;;;;17.10;10.53;;;-1.60;99.90;;;;;;5035997;28;20195;-69
2022/01/23 11:59:29;;;;;;;19.87;10.53;;;-1.70;99.90;;;;;;5032739;28;20229;-67
2022/01/23 12:02:22;;;;;;;18.43;10.50;;;-1.80;99.90;;;;;;5031758;28;20198;-69
2022/01/23 12:05:22;;;;;;;20.43;10.77;;;-1.90;99.90;;;;;;5031055;28;20561;-67
2022/01/23 12:08:32;;;;;;;20.30;11.23;;;-1.90;99.90;;;;;;5031094;28;20190;-69
2022/01/23 12:11:25;;;;;;;23.00;11.93;;;-2.00;99.90;;;;;;5031875;28;20717;-68
2022/01/23 12:17:01;;;;;;;25.83;13.50;;;-1.90;99.90;;;;;;5027579;28;20245;-69
2022/01/23 12:19:30;;;;;;;21.57;12.63;;;-1.90;99.90;;;;;;5031314;28;20194;-69
2022/01/23 12:22:18;;;;;;;19.90;12.17;;;-1.80;99.90;;;;;;5031356;28;20198;-68
2022/01/23 12:24:49;;;;;;;22.80;11.80;;;-1.80;99.90;;;;;;5030775;28;20584;-68
2022/01/23 12:27:26;;;;;;;21.60;12.07;;;-1.70;99.90;;;;;;5030513;28;20564;-67
2022/01/23 12:29:54;;;;;;;19.57;10.73;;;-1.70;99.90;;;;;;5031496;28;20574;-68
2022/01/23 12:32:26;;;;;;;24.23;12.90;;;-1.70;99.90;;;;;;5031691;28;20198;-70
2022/01/23 12:34:55;;;;;;;24.03;12.73;;;-1.70;99.90;;;;;;5031331;28;20194;-68
2022/01/23 12:37:22;;;;;;;41.87;21.63;;;-1.70;99.90;;;;;;5031512;28;20202;-67
2022/01/23 12:40:23;;;;;;;21.93;12.47;;;-1.70;99.90;;;;;;5031398;28;20202;-67
2022/01/23 12:43:08;;;;;;;21.17;12.13;;;-1.70;99.90;;;;;;5031556;28;20222;-67
2022/01/23 12:45:52;;;;;;;20.57;12.27;;;-1.80;99.90;;;;;;5020059;28;20205;-68
2022/01/23 12:48:48;;;;;;;22.97;12.60;;;-1.80;99.90;;;;;;5027531;28;20264;-68
2022/01/23 12:51:42;;;;;;;19.90;11.60;;;-1.90;99.90;;;;;;5031461;28;20601;-68
2022/01/23 12:54:35;;;;;;;21.83;12.40;;;-2.00;99.90;;;;;;5031562;28;20241;-70
2022/01/23 12:57:13;;;;;;;20.73;11.83;;;-1.90;99.90;;;;;;5031988;28;20557;-68
2022/01/23 12:59:43;;;;;;;22.33;11.60;;;-1.90;99.90;;;;;;5032617;28;20198;-67
2022/01/23 13:02:15;;;;;;;23.40;13.23;;;-2.00;99.90;;;;;;5034810;28;20244;-67
2022/01/23 13:04:44;;;;;;;22.67;13.30;;;-2.00;99.90;;;;;;5034840;28;20194;-67
2022/01/23 13:07:28;;;;;;;24.43;12.93;;;-2.00;99.90;;;;;;5034949;28;20309;-67
2022/01/23 13:10:04;;;;;;;21.43;12.57;;;-2.00;99.90;;;;;;5033322;28;20922;-68
2022/01/23 13:12:48;;;;;;;21.80;12.53;;;-2.00;99.90;;;;;;5034614;28;20213;-68
2022/01/23 13:15:37;;;;;;;22.00;12.40;;;-2.00;99.90;;;;;;5034665;28;20197;-67
2022/01/23 13:18:13;;;;;;;23.83;12.83;;;-2.10;99.90;;;;;;5033746;28;20193;-66
2022/01/23 13:26:49;;;;;;;25.47;13.23;;;-2.10;99.90;;;;;;5034156;28;20562;-68
2022/01/23 13:32:10;;;;;;;20.97;11.17;;;-2.20;99.90;;;;;;5034345;28;20277;-65
2022/01/23 13:34:40;;;;;;;16.43;9.93;;;-2.20;99.90;;;;;;5034027;28;20327;-67
2022/01/23 13:37:08;;;;;;;19.63;10.17;;;-2.30;99.90;;;;;;5034096;28;20285;-68
2022/01/23 13:39:42;;;;;;;17.43;10.90;;;-2.30;99.90;;;;;;5034236;28;20233;-68
2022/01/23 13:42:26;;;;;;;17.40;9.20;;;-2.40;99.90;;;;;;5033761;28;20659;-69
2022/01/23 13:48:21;;;;;;;21.20;10.53;;;-2.40;99.90;;;;;;5033676;28;20201;-67
2022/01/23 13:53:51;;;;;;;15.70;9.63;;;-2.50;99.90;;;;;;5038623;28;20480;-68
2022/01/23 13:59:12;;;;;;;16.20;10.07;;;-2.50;99.90;;;;;;5033269;28;20681;-69
2022/01/23 14:02:06;;;;;;;18.63;10.30;;;-2.50;99.90;;;;;;5033627;28;20204;-70
2022/01/23 14:04:39;;;;;;;20.60;11.53;;;-2.50;99.90;;;;;;5033905;28;20663;-68
2022/01/23 14:07:06;;;;;;;21.60;12.30;;;-2.50;99.90;;;;;;5034283;28;20205;-69
2022/01/23 14:09:39;;;;;;;22.30;12.57;;;-2.50;99.90;;;;;;5033417;28;20226;-69
2022/01/23 14:12:09;;;;;;;23.23;12.83;;;-2.50;99.90;;;;;;5032824;28;20201;-69
2022/01/23 14:14:36;;;;;;;21.17;11.13;;;-2.50;99.90;;;;;;5033694;28;20598;-69
2022/01/23 14:17:13;;;;;;;21.03;11.27;;;-2.60;99.90;;;;;;5033665;28;20647;-70
2022/01/23 14:19:41;;;;;;;22.57;11.47;;;-2.60;99.90;;;;;;5033362;28;20186;-69
2022/01/23 14:22:08;;;;;;;21.00;11.90;;;-2.60;99.90;;;;;;5033242;28;20211;-69
2022/01/23 14:24:37;;;;;;;23.17;12.83;;;-2.70;99.90;;;;;;5032843;28;20217;-69
2022/01/23 14:27:06;;;;;;;23.90;13.67;;;-2.70;99.90;;;;;;5039678;28;20566;-68
2022/01/23 14:29:35;;;;;;;21.97;13.23;;;-2.70;99.90;;;;;;5034607;28;20230;-68
2022/01/23 14:32:07;;;;;;;26.37;14.07;;;-2.70;99.90;;;;;;5032611;28;20206;-68
2022/01/23 14:34:34;;;;;;;25.47;14.33;;;-2.80;99.90;;;;;;5033380;28;20245;-68
2022/01/23 14:37:06;;;;;;;29.33;14.70;;;-2.80;99.90;;;;;;5033298;28;20205;-67
2022/01/23 14:39:34;;;;;;;25.87;14.23;;;-2.80;99.90;;;;;;5033428;28;20392;-67
2022/01/23 14:42:11;;;;;;;27.00;15.20;;;-2.80;99.90;;;;;;5032643;28;20202;-68
2022/01/23 14:44:38;;;;;;;30.87;15.77;;;-2.70;99.90;;;;;;5032798;28;20202;-68
2022/01/23 14:47:06;;;;;;;28.57;16.07;;;-2.70;99.90;;;;;;5033470;28;20202;-69
2022/01/23 14:49:33;;;;;;;31.23;16.37;;;-2.80;99.90;;;;;;5032515;28;20222;-68
2022/01/23 14:52:03;;;;;;;34.87;18.00;;;-2.80;99.90;;;;;;5032893;28;20663;-69
2022/01/23 14:54:32;;;;;;;42.20;21.33;;;-2.80;99.90;;;;;;5031247;28;20817;-68
2022/01/23 14:57:00;;;;;;;37.73;18.87;;;-2.80;99.90;;;;;;5012699;28;20281;-66
2022/01/23 14:59:30;;;;;;;33.53;16.13;;;-2.80;99.90;;;;;;5012871;28;20206;-68
2022/01/23 15:01:56;;;;;;;29.10;15.30;;;-2.80;99.90;;;;;;5028723;28;20202;-67
2022/01/23 15:04:24;;;;;;;28.67;15.33;;;-2.80;99.90;;;;;;5032159;28;20194;-71
2022/01/23 15:06:52;;;;;;;30.37;16.10;;;-2.80;99.90;;;;;;5032309;28;20799;-67
2022/01/23 15:09:22;;;;;;;24.07;13.67;;;-2.80;99.90;;;;;;5032172;28;20280;-68
2022/01/23 15:11:50;;;;;;;30.33;14.37;;;-2.80;99.90;;;;;;5031917;28;20240;-67
2022/01/23 15:14:18;;;;;;;24.50;12.87;;;-2.80;99.90;;;;;;5031833;28;20692;-69
2022/01/23 15:16:45;;;;;;;25.40;13.10;;;-2.80;99.90;;;;;;5031639;28;20582;-69
2022/01/23 15:19:13;;;;;;;21.57;11.87;;;-2.80;99.90;;;;;;5032487;28;20719;-68
2022/01/23 15:21:39;;;;;;;19.57;11.50;;;-2.80;99.90;;;;;;5032338;28;20199;-70
2022/01/23 15:24:07;;;;;;;22.37;12.27;;;-2.90;99.90;;;;;;5032269;28;20562;-68